Time;durP1;ratioP1;P1;durP2;ratioP2;P2;SDS_P1;SDS_P2;PMS_P1;PMS_P2;Temp;Humidity;BMP_temperature;BMP_pressure;BME280_temperature;BME280_humidity;BME280_pressure;Samples;Min_cycle;Max_cycle;Signal;HPM_P1;HPM_P2
2021/06/23 00:01:46;;;;;;;14.30;4.05;;;;;;;21.58;76.19;100462.27;1775273;80;20928;-73
2021/06/23 00:04:13;;;;;;;17.05;4.42;;;;;;;21.57;76.30;100463.28;1775658;80;20983;-73
2021/06/23 00:06:40;;;;;;;9.33;3.60;;;;;;;21.58;76.27;100467.61;1775366;80;21116;-72
2021/06/23 00:09:08;;;;;;;11.50;3.08;;;;;;;21.58;76.20;100466.27;1775203;80;20880;-74
2021/06/23 00:11:45;;;;;;;12.18;3.58;;;;;;;21.59;76.13;100471.45;1775190;80;20979;-74
2021/06/23 00:14:13;;;;;;;8.80;3.27;;;;;;;21.61;76.02;100476.12;1779845;80;20932;-72
2021/06/23 00:16:43;;;;;;;7.17;3.45;;;;;;;21.61;75.92;100467.26;1783676;80;20830;-72
2021/06/23 00:19:10;;;;;;;11.85;4.47;;;;;;;21.62;75.81;100465.77;1783837;80;21806;-72
2021/06/23 00:21:37;;;;;;;7.65;3.40;;;;;;;21.63;75.63;100475.93;1783433;80;21357;-73
2021/06/23 00:24:04;;;;;;;7.33;3.10;;;;;;;21.62;75.65;100464.43;1783456;80;20975;-72
2021/06/23 00:26:33;;;;;;;8.70;3.45;;;;;;;21.58;75.69;100455.09;1783742;80;20907;-72
2021/06/23 00:29:00;;;;;;;5.92;3.37;;;;;;;21.56;75.65;100466.94;1783536;80;20873;-73
2021/06/23 00:31:28;;;;;;;6.95;2.90;;;;;;;21.53;75.54;100466.27;1783712;80;21056;-73
2021/06/23 00:33:56;;;;;;;12.00;3.58;;;;;;;21.53;75.66;100464.11;1783527;80;20920;-73
2021/06/23 00:36:23;;;;;;;7.67;3.92;;;;;;;21.53;75.91;100470.27;1783778;80;20916;-73
2021/06/23 00:38:50;;;;;;;11.65;4.50;;;;;;;21.57;75.75;100493.97;1783439;80;20868;-70
2021/06/23 00:41:18;;;;;;;9.05;4.47;;;;;;;21.59;75.46;100495.47;1783873;80;21373;-70
2021/06/23 00:43:46;;;;;;;7.83;3.70;;;;;;;21.59;75.15;100502.14;1783154;80;22015;-71
2021/06/23 00:46:13;;;;;;;10.88;4.15;;;;;;;21.59;75.12;100491.94;1783706;80;20959;-71
2021/06/23 00:48:41;;;;;;;8.75;3.80;;;;;;;21.59;75.44;100506.62;1783622;80;20841;-71
2021/06/23 00:51:09;;;;;;;11.05;4.00;;;;;;;21.56;75.39;100501.63;1783494;80;20853;-72
2021/06/23 00:53:56;;;;;;;12.75;4.53;;;;;;;21.52;75.67;100511.31;1660087;86;21501;-71
2021/06/23 00:56:33;;;;;;;8.55;4.03;;;;;;;21.49;75.99;100512.13;1660115;86;21547;-72
2021/06/23 00:59:01;;;;;;;8.18;3.70;;;;;;;21.46;76.27;100513.30;1660040;86;21358;-72
2021/06/23 01:01:31;;;;;;;8.23;3.60;;;;;;;21.45;76.57;100508.13;1660077;86;20884;-71
2021/06/23 01:03:58;;;;;;;7.42;3.83;;;;;;;21.44;76.66;100513.14;1660122;86;21015;-70
2021/06/23 01:06:25;;;;;;;7.87;3.90;;;;;;;21.43;76.58;100516.31;1660207;86;20962;-71
2021/06/23 01:08:53;;;;;;;11.57;3.87;;;;;;;21.49;76.75;100510.80;1660135;86;21171;-71
2021/06/23 01:11:22;;;;;;;11.90;4.15;;;;;;;21.51;76.71;100509.62;1660230;86;21489;-71
2021/06/23 01:13:58;;;;;;;11.43;4.55;;;;;;;21.55;76.73;100495.97;1660270;85;21449;-69
2021/06/23 01:16:28;;;;;;;16.77;4.85;;;;;;;21.58;76.72;100503.63;1660503;86;20963;-70
2021/06/23 01:18:57;;;;;;;7.78;4.58;;;;;;;21.60;76.44;100490.45;1660409;86;21569;-71
2021/06/23 01:21:25;;;;;;;8.73;4.72;;;;;;;21.62;76.18;100481.78;1660388;86;21560;-71
2021/06/23 01:23:52;;;;;;;9.75;3.65;;;;;;;21.64;76.07;100502.97;1639276;80;21160;-71
2021/06/23 01:26:20;;;;;;;9.33;3.98;;;;;;;21.62;76.03;100484.95;1781078;80;20841;-71
2021/06/23 01:28:47;;;;;;;14.15;4.67;;;;;;;21.62;76.01;100495.13;1781187;80;20897;-72
2021/06/23 01:31:21;;;;;;;10.53;5.30;;;;;;;21.62;75.97;100492.96;1781197;80;20841;-72
2021/06/23 01:33:50;;;;;;;10.35;4.22;;;;;;;21.63;75.92;100495.95;1780910;80;21171;-73
2021/06/23 01:36:20;;;;;;;12.20;4.87;;;;;;;21.63;75.91;100487.94;1781000;80;20861;-73
2021/06/23 01:38:49;;;;;;;11.88;5.15;;;;;;;21.63;75.90;100493.28;1781068;80;20864;-72
2021/06/23 01:41:16;;;;;;;8.43;3.62;;;;;;;21.63;75.83;100488.80;1780863;80;20940;-71
2021/06/23 01:43:45;;;;;;;14.68;4.53;;;;;;;21.64;75.90;100481.63;1781100;80;20979;-71
2021/06/23 01:46:12;;;;;;;15.13;4.80;;;;;;;21.63;75.99;100486.61;1780904;80;21136;-71
2021/06/23 01:48:39;;;;;;;12.30;4.03;;;;;;;21.58;75.99;100493.78;1781005;80;20983;-71
2021/06/23 01:51:06;;;;;;;7.03;4.10;;;;;;;21.53;76.11;100491.62;1752396;80;21553;-71
2021/06/23 01:53:35;;;;;;;10.88;4.55;;;;;;;21.51;76.17;100479.45;1779782;80;20892;-71
2021/06/23 01:56:06;;;;;;;14.35;4.85;;;;;;;21.50;76.36;100475.95;1781046;80;20853;-71
2021/06/23 01:58:39;;;;;;;8.80;4.65;;;;;;;21.53;76.08;100484.13;1781282;80;21963;-70
2021/06/23 02:01:27;;;;;;;8.20;4.50;;;;;;;21.56;76.03;100483.77;1749690;80;21398;-71
2021/06/23 02:04:00;;;;;;;8.93;4.28;;;;;;;21.60;76.09;100474.95;1780946;80;20940;-71
2021/06/23 02:06:50;;;;;;;9.87;4.67;;;;;;;21.65;75.90;100480.61;1781014;80;20888;-71
2021/06/23 02:09:59;;;;;;;12.88;5.47;;;;;;;21.69;75.84;100484.61;1780967;80;21338;-70
2021/06/23 02:13:11;;;;;;;10.55;4.60;;;;;;;21.75;75.97;100477.78;1776832;80;20845;-70
2021/06/23 02:15:39;;;;;;;10.28;4.72;;;;;;;21.80;76.15;100487.44;1783317;80;21516;-71
2021/06/23 02:18:08;;;;;;;9.28;6.20;;;;;;;21.83;75.98;100492.44;1782571;80;20881;-71
2021/06/23 02:20:37;;;;;;;11.33;4.50;;;;;;;21.84;75.93;100500.28;1778748;80;21346;-71
2021/06/23 02:23:09;;;;;;;11.65;4.55;;;;;;;21.84;75.89;100500.28;1782053;80;20865;-70
2021/06/23 02:28:01;;;;;;;11.15;4.60;;;;;;;21.87;75.84;100487.09;1816508;79;22655;-69
2021/06/23 02:30:28;;;;;;;8.90;5.28;;;;;;;21.81;75.75;100492.62;1789582;80;21318;-70
2021/06/23 02:32:57;;;;;;;9.95;4.58;;;;;;;21.82;75.76;100494.78;1789393;80;21235;-70
2021/06/23 02:35:29;;;;;;;10.00;4.33;;;;;;;21.81;76.00;100501.11;1788759;80;21476;-69
2021/06/23 02:37:58;;;;;;;12.53;4.80;;;;;;;21.80;76.16;100506.95;1789473;80;20983;-70
2021/06/23 02:40:25;;;;;;;8.15;4.85;;;;;;;21.79;76.11;100505.30;1789391;80;20944;-71
2021/06/23 02:43:03;;;;;;;7.90;4.60;;;;;;;21.79;76.07;100503.11;1789434;80;20932;-71
2021/06/23 02:45:31;;;;;;;6.95;4.67;;;;;;;21.81;76.26;100509.12;1789592;80;21602;-70
2021/06/23 02:47:58;;;;;;;9.23;5.20;;;;;;;21.81;76.23;100517.12;1789657;80;21390;-71
2021/06/23 02:50:32;;;;;;;8.93;4.72;;;;;;;21.82;76.00;100519.64;1769442;80;21393;-71
2021/06/23 02:53:11;;;;;;;10.72;5.90;;;;;;;21.83;76.28;100513.80;1788958;80;20868;-71
2021/06/23 02:55:38;;;;;;;15.65;5.08;;;;;;;21.84;76.47;100507.47;1789816;80;21362;-71
2021/06/23 02:58:05;;;;;;;11.78;3.90;;;;;;;21.87;76.35;100511.13;1789504;80;21134;-71
2021/06/23 03:00:32;;;;;;;7.53;3.83;;;;;;;21.89;75.91;100515.80;1789343;80;21365;-71
2021/06/23 03:03:01;;;;;;;8.20;4.17;;;;;;;21.91;76.15;100524.48;1789421;80;21402;-71
2021/06/23 03:05:28;;;;;;;9.60;3.65;;;;;;;21.95;75.27;100521.80;1789340;80;20936;-71
2021/06/23 03:07:55;;;;;;;12.95;4.28;;;;;;;22.03;74.98;100522.28;1789521;80;21408;-71
2021/06/23 03:10:24;;;;;;;6.50;4.40;;;;;;;22.11;74.88;100526.28;1788469;79;21750;-71
2021/06/23 03:13:10;;;;;;;7.20;3.35;;;;;;;22.21;75.35;100528.76;1789275;80;20916;-71
2021/06/23 03:15:39;;;;;;;6.97;3.15;;;;;;;22.30;74.69;100537.14;1785365;80;20954;-73
2021/06/23 03:18:07;;;;;;;11.90;3.85;;;;;;;22.38;74.20;100545.63;1789111;80;20861;-71
2021/06/23 03:20:34;;;;;;;10.63;4.35;;;;;;;22.46;73.58;100543.77;1789439;80;21002;-74
2021/06/23 03:23:01;;;;;;;12.40;4.12;;;;;;;22.56;72.38;100544.39;1789463;80;21401;-71
2021/06/23 03:25:28;;;;;;;17.62;4.12;;;;;;;22.68;71.52;100540.86;1789712;80;20915;-72
2021/06/23 03:27:58;;;;;;;10.72;4.50;;;;;;;22.80;70.32;100548.50;1784780;80;20975;-71
2021/06/23 03:30:26;;;;;;;15.20;5.72;;;;;;;22.90;69.64;100551.78;1784380;80;20983;-71
2021/06/23 03:32:53;;;;;;;13.13;5.10;;;;;;;23.03;68.78;100556.09;1784388;80;20924;-71
2021/06/23 03:35:20;;;;;;;12.53;5.17;;;;;;;23.15;68.34;100563.24;1784198;80;21906;-71
2021/06/23 03:37:51;;;;;;;7.67;4.92;;;;;;;23.25;68.15;100577.72;1783871;80;21081;-71
2021/06/23 03:40:19;;;;;;;8.90;4.60;;;;;;;23.33;68.31;100584.38;1783563;80;20896;-71
2021/06/23 03:42:47;;;;;;;17.07;5.80;;;;;;;23.36;68.18;100588.03;1783893;80;20932;-72
2021/06/23 03:45:15;;;;;;;15.72;5.00;;;;;;;23.40;67.54;100592.53;1783563;80;21348;-71
2021/06/23 03:47:42;;;;;;;14.23;6.25;;;;;;;23.45;66.89;100587.47;1783868;80;21110;-71
2021/06/23 03:50:11;;;;;;;15.13;6.67;;;;;;;23.48;67.14;100585.28;1783235;80;20881;-71
2021/06/23 03:52:39;;;;;;;11.55;6.05;;;;;;;23.53;65.99;100584.75;1783813;80;20888;-72
2021/06/23 03:55:19;;;;;;;12.55;7.08;;;;;;;23.58;66.01;100599.25;1783461;80;20873;-71
2021/06/23 03:57:39;;;;;;;20.75;6.40;;;;;;;23.64;65.97;100594.22;1783146;80;21337;-71
2021/06/23 04:00:09;;;;;;;15.45;6.67;;;;;;;23.70;66.77;100597.50;1783582;80;21768;-70
2021/06/23 04:02:37;;;;;;;15.58;6.47;;;;;;;23.75;67.30;100603.21;1782517;80;20963;-72
2021/06/23 04:05:05;;;;;;;17.85;8.18;;;;;;;23.79;67.78;100603.19;1783626;80;20942;-70
2021/06/23 04:07:34;;;;;;;14.63;5.75;;;;;;;23.85;67.84;100609.66;1783359;80;20971;-71
2021/06/23 04:10:02;;;;;;;13.95;6.30;;;;;;;23.87;67.86;100609.80;1783558;80;21046;-72
2021/06/23 04:12:30;;;;;;;12.13;6.22;;;;;;;23.90;68.07;100606.78;1783032;80;22046;-72
2021/06/23 04:15:01;;;;;;;21.15;9.58;;;;;;;23.94;68.22;100621.45;1783415;80;20885;-71
2021/06/23 04:17:28;;;;;;;28.77;12.03;;;;;;;24.04;66.82;100625.76;1783831;80;20932;-71
2021/06/23 04:19:55;;;;;;;24.85;10.60;;;;;;;24.20;66.26;100626.44;1783573;80;20940;-71
2021/06/23 04:22:26;;;;;;;22.20;10.72;;;;;;;24.48;65.74;100622.34;1784066;80;20999;-72
2021/06/23 04:24:55;;;;;;;26.37;9.63;;;;;;;24.90;66.03;100628.94;1782447;80;21141;-73
2021/06/23 04:27:22;;;;;;;23.22;8.93;;;;;;;25.37;65.57;100632.58;1783536;80;20896;-71
2021/06/23 04:29:50;;;;;;;28.30;9.85;;;;;;;25.86;64.15;100629.69;1783454;80;20968;-71
2021/06/23 04:32:17;;;;;;;16.20;8.43;;;;;;;26.40;62.46;100629.64;1783559;80;20952;-73
2021/06/23 04:34:46;;;;;;;19.98;8.20;;;;;;;26.94;60.19;100637.03;1782902;80;21100;-72
2021/06/23 04:37:15;;;;;;;22.30;8.08;;;;;;;27.45;57.27;100634.48;1781044;80;21816;-71
2021/06/23 04:39:42;;;;;;;16.87;7.92;;;;;;;27.88;55.97;100635.52;1783639;80;20928;-71
2021/06/23 04:42:14;;;;;;;19.85;8.65;;;;;;;28.29;55.67;100638.55;1783432;80;21006;-70
2021/06/23 04:44:42;;;;;;;20.80;8.38;;;;;;;28.71;54.65;100629.70;1783781;80;20916;-73
2021/06/23 04:47:10;;;;;;;21.97;9.33;;;;;;;29.02;53.10;100633.03;1783484;80;20928;-73
2021/06/23 04:49:38;;;;;;;18.52;9.48;;;;;;;29.26;51.70;100628.82;1783391;80;22008;-73
2021/06/23 04:52:16;;;;;;;19.77;14.23;;;;;;;29.46;51.46;100642.72;1783361;80;20936;-72
2021/06/23 04:54:45;;;;;;;17.00;10.50;;;;;;;29.72;51.90;100651.23;1783776;80;20975;-73
2021/06/23 04:57:13;;;;;;;25.50;10.43;;;;;;;30.02;52.27;100651.98;1783445;80;20857;-74
2021/06/23 04:59:40;;;;;;;19.95;11.55;;;;;;;30.33;51.20;100652.48;1783725;80;21365;-74
2021/06/23 05:02:07;;;;;;;24.02;12.13;;;;;;;30.64;51.28;100657.48;1783469;80;21115;-72
2021/06/23 05:04:36;;;;;;;24.18;10.72;;;;;;;30.93;48.73;100661.39;1783447;80;20932;-72
2021/06/23 05:07:05;;;;;;;14.38;8.50;;;;;;;31.16;46.80;100660.69;1783375;80;20884;-73
2021/06/23 05:09:32;;;;;;;22.37;10.53;;;;;;;31.36;45.83;100665.33;1783686;80;20904;-74
2021/06/23 05:12:00;;;;;;;17.15;9.38;;;;;;;31.53;45.62;100670.16;1783612;80;20872;-72
2021/06/23 05:14:26;;;;;;;22.70;7.47;;;;;;;31.68;44.92;100663.77;1783818;80;21100;-72
2021/06/23 05:16:54;;;;;;;26.20;8.88;;;;;;;31.83;44.92;100663.89;1783365;80;20987;-71
2021/06/23 05:19:20;;;;;;;19.55;7.95;;;;;;;32.03;45.08;100664.42;1783830;80;20857;-72
2021/06/23 05:21:47;;;;;;;18.42;7.28;;;;;;;32.30;44.67;100670.77;1783365;80;21050;-71
2021/06/23 05:24:14;;;;;;;18.37;8.38;;;;;;;32.45;44.01;100668.42;1778981;80;21536;-72
2021/06/23 05:26:42;;;;;;;17.77;7.42;;;;;;;32.66;44.00;100667.56;1752237;80;20919;-73
2021/06/23 05:29:09;;;;;;;21.97;8.48;;;;;;;32.77;44.50;100668.08;1775214;80;21366;-72
2021/06/23 05:31:36;;;;;;;26.65;7.62;;;;;;;32.94;44.77;100664.92;1775264;80;20936;-73
2021/06/23 05:34:03;;;;;;;22.75;5.70;;;;;;;33.13;43.83;100661.55;1775231;80;20995;-73
2021/06/23 05:36:30;;;;;;;15.45;5.92;;;;;;;33.39;41.70;100669.66;1775642;80;20924;-73
2021/06/23 05:38:57;;;;;;;24.87;6.28;;;;;;;33.59;40.06;100671.15;1775215;80;21569;-72
2021/06/23 05:41:24;;;;;;;21.33;5.80;;;;;;;33.71;39.56;100680.09;1775459;80;21533;-72
2021/06/23 05:43:51;;;;;;;21.95;5.90;;;;;;;33.83;38.80;100678.13;1775241;80;20885;-75
2021/06/23 05:46:19;;;;;;;16.40;6.12;;;;;;;33.97;38.43;100679.16;1775320;80;20877;-77
2021/06/23 05:48:46;;;;;;;19.32;6.12;;;;;;;34.12;38.55;100679.45;1775303;80;20916;-75
2021/06/23 05:51:14;;;;;;;19.95;6.00;;;;;;;34.24;37.52;100688.89;1775335;80;21771;-75
2021/06/23 05:53:43;;;;;;;20.48;6.05;;;;;;;34.33;38.32;100692.88;1775238;80;20884;-76
2021/06/23 05:56:10;;;;;;;15.78;5.62;;;;;;;34.52;38.08;100692.60;1775685;80;20924;-74
2021/06/23 05:58:37;;;;;;;15.15;4.95;;;;;;;34.74;37.61;100699.49;1775295;80;20924;-74
2021/06/23 06:01:05;;;;;;;18.70;5.72;;;;;;;34.94;37.36;100703.86;1775726;80;21464;-75
2021/06/23 06:03:34;;;;;;;17.07;5.35;;;;;;;35.14;36.43;100705.23;1775311;80;21648;-72
2021/06/23 06:06:04;;;;;;;16.50;5.42;;;;;;;35.22;35.72;100712.44;1775263;80;20896;-74
2021/06/23 06:08:30;;;;;;;22.67;6.12;;;;;;;35.29;36.54;100710.88;1775202;80;20853;-74
2021/06/23 06:10:57;;;;;;;21.05;5.85;;;;;;;35.49;36.16;100711.66;1775965;80;20892;-73
2021/06/23 06:13:24;;;;;;;35.60;7.53;;;;;;;35.65;36.55;100722.22;1775443;80;21398;-74
2021/06/23 06:15:51;;;;;;;24.32;7.15;;;;;;;35.84;35.99;100718.05;1775548;80;21112;-72
2021/06/23 06:18:18;;;;;;;16.52;7.35;;;;;;;36.05;35.51;100714.95;1775347;80;20912;-73
2021/06/23 06:20:46;;;;;;;22.67;8.15;;;;;;;36.23;35.47;100712.95;1775288;80;20924;-73
2021/06/23 06:23:12;;;;;;;24.07;9.60;;;;;;;36.40;35.14;100706.00;1779081;80;20948;-74
2021/06/23 06:25:40;;;;;;;30.80;9.15;;;;;;;36.62;35.48;100714.92;1775359;80;20849;-72
2021/06/23 06:28:07;;;;;;;23.50;8.70;;;;;;;36.81;35.41;100715.28;1775091;80;21895;-73
2021/06/23 06:30:33;;;;;;;20.72;6.47;;;;;;;36.97;35.42;100706.61;1775374;80;20920;-73
2021/06/23 06:33:01;;;;;;;21.60;7.53;;;;;;;37.10;34.13;100699.32;1775249;80;20868;-73
2021/06/23 06:35:28;;;;;;;33.23;7.62;;;;;;;37.21;32.98;100702.11;1775185;80;20971;-73
2021/06/23 06:37:56;;;;;;;25.02;7.45;;;;;;;37.26;32.55;100703.48;1775371;80;20960;-73
2021/06/23 06:40:23;;;;;;;26.25;8.03;;;;;;;37.37;33.87;100696.95;1775119;80;21549;-75
2021/06/23 06:42:50;;;;;;;26.33;8.88;;;;;;;37.53;33.01;100698.66;1775002;80;20857;-74
2021/06/23 06:45:18;;;;;;;28.15;7.65;;;;;;;37.70;33.03;100696.23;1775491;80;20952;-73
2021/06/23 06:47:46;;;;;;;25.05;8.13;;;;;;;37.89;32.63;100702.02;1775511;80;20971;-72
2021/06/23 06:50:13;;;;;;;29.50;9.28;;;;;;;38.03;32.91;100707.25;1775317;80;20964;-73
2021/06/23 06:52:40;;;;;;;29.48;8.13;;;;;;;38.21;34.00;100706.43;1775614;80;21191;-74
2021/06/23 06:55:08;;;;;;;26.37;9.88;;;;;;;38.22;33.73;100707.53;1775099;80;21524;-75
2021/06/23 06:57:35;;;;;;;25.60;10.25;;;;;;;38.26;34.14;100703.67;1775373;80;20893;-74
2021/06/23 07:00:05;;;;;;;31.95;9.58;;;;;;;38.31;32.67;100699.03;1775148;80;20841;-74
2021/06/23 07:02:32;;;;;;;33.23;8.75;;;;;;;38.37;31.90;100709.42;1774763;80;20912;-75
2021/06/23 07:04:59;;;;;;;25.23;8.80;;;;;;;38.44;32.64;100708.58;1775227;80;21169;-72
2021/06/23 07:07:26;;;;;;;22.90;9.53;;;;;;;38.49;32.53;100703.70;1774966;80;21758;-71
2021/06/23 07:09:53;;;;;;;31.90;10.10;;;;;;;38.55;32.84;100706.16;1775087;80;20884;-74
2021/06/23 07:12:21;;;;;;;24.63;9.98;;;;;;;38.57;30.93;100707.22;1775103;80;20894;-71
2021/06/23 07:14:48;;;;;;;24.15;8.88;;;;;;;38.63;31.12;100708.86;1775309;80;20928;-72
2021/06/23 07:17:15;;;;;;;22.60;8.98;;;;;;;38.70;31.07;100710.75;1775584;80;21183;-72
2021/06/23 07:19:42;;;;;;;24.82;9.10;;;;;;;38.74;30.78;100704.17;1775241;80;20916;-72
2021/06/23 07:22:09;;;;;;;21.87;8.70;;;;;;;38.79;30.68;100702.78;1775486;80;20923;-72
2021/06/23 07:24:36;;;;;;;21.20;7.85;;;;;;;38.89;31.54;100700.58;1775333;80;20967;-74
2021/06/23 07:27:05;;;;;;;26.55;7.42;;;;;;;39.04;31.66;100704.63;1775336;80;21039;-72
2021/06/23 07:29:32;;;;;;;19.42;7.78;;;;;;;39.18;30.30;100702.13;1775260;80;21138;-72
2021/06/23 07:32:45;;;;;;;19.73;6.92;;;;;;;39.26;30.57;100702.08;1775212;80;20927;-71
2021/06/23 07:37:07;;;;;;;27.22;5.97;;;;;;;39.33;29.11;100696.56;1775301;80;21473;-73
2021/06/23 07:39:32;;;;;;;23.65;7.87;;;;;;;39.37;28.85;100696.23;1774833;80;20885;-73
2021/06/23 07:41:59;;;;;;;19.75;6.30;;;;;;;39.42;28.93;100697.34;1775232;80;22019;-71
2021/06/23 07:44:34;;;;;;;28.87;6.37;;;;;;;39.45;28.70;100700.92;1775173;80;20865;-71
2021/06/23 07:47:06;;;;;;;25.13;6.87;;;;;;;39.49;28.93;100698.69;1775766;80;21386;-72
2021/06/23 07:49:38;;;;;;;19.95;5.75;;;;;;;39.55;28.50;100699.47;1775385;80;20952;-71
2021/06/23 07:52:21;;;;;;;25.37;5.20;;;;;;;39.48;27.50;100706.64;1775495;80;20963;-71
2021/06/23 08:10:48;;;;;;;26.48;4.72;;;;;;;39.02;28.77;100700.01;1775505;80;21514;-70
2021/06/23 08:13:15;;;;;;;16.67;4.40;;;;;;;39.10;28.12;100704.08;1775661;80;21442;-70
2021/06/23 08:15:44;;;;;;;24.60;4.80;;;;;;;39.11;28.84;100703.80;1775171;80;20912;-71
2021/06/23 08:18:12;;;;;;;22.98;4.97;;;;;;;39.22;28.79;100705.11;1775509;80;20917;-71
2021/06/23 08:20:39;;;;;;;22.73;5.65;;;;;;;39.27;28.42;100708.66;1775314;80;21579;-70
2021/06/23 08:23:06;;;;;;;19.20;4.97;;;;;;;39.27;28.41;100706.47;1775268;80;21413;-69
2021/06/23 08:25:33;;;;;;;21.30;4.95;;;;;;;39.31;28.99;100707.00;1775553;80;20880;-70
2021/06/23 08:28:00;;;;;;;23.00;5.67;;;;;;;39.29;28.42;100700.97;1777090;80;20967;-70
2021/06/23 08:30:27;;;;;;;19.77;4.67;;;;;;;39.24;29.37;100700.16;1783495;80;20934;-70
2021/06/23 08:32:58;;;;;;;29.35;6.28;;;;;;;39.28;29.12;100703.98;1783593;80;21574;-71
2021/06/23 08:35:25;;;;;;;21.62;5.55;;;;;;;39.39;29.21;100706.97;1783393;80;20987;-69
2021/06/23 08:37:54;;;;;;;16.52;4.92;;;;;;;39.44;29.69;100704.75;1783548;80;20940;-70
2021/06/23 08:40:22;;;;;;;32.50;8.53;;;;;;;39.52;29.30;100696.73;1783439;80;21004;-71
2021/06/23 08:42:49;;;;;;;24.15;5.97;;;;;;;39.65;29.35;100698.59;1783970;80;20888;-71
2021/06/23 08:45:16;;;;;;;15.98;5.60;;;;;;;39.72;30.22;100705.95;1783555;80;21135;-71
2021/06/23 08:47:45;;;;;;;30.32;7.22;;;;;;;39.72;29.43;100705.39;1783794;80;21425;-71
2021/06/23 08:50:20;;;;;;;16.32;4.90;;;;;;;39.72;30.09;100705.95;1783428;80;21326;-71
2021/06/23 08:52:46;;;;;;;22.95;5.22;;;;;;;39.78;29.99;100708.37;1783773;80;20928;-71
2021/06/23 08:55:19;;;;;;;24.43;5.55;;;;;;;39.81;29.47;100703.42;1783570;80;21460;-71
2021/06/23 08:57:44;;;;;;;19.48;4.83;;;;;;;39.84;29.34;100703.68;1783500;80;21100;-71
2021/06/23 09:00:11;;;;;;;19.48;4.50;;;;;;;39.88;29.66;100702.00;1783557;80;20833;-70
2021/06/23 09:02:39;;;;;;;20.48;4.65;;;;;;;39.85;30.04;100702.59;1783592;80;20876;-71
2021/06/23 09:05:09;;;;;;;20.25;4.28;;;;;;;39.87;29.08;100709.99;1783533;80;20896;-73
2021/06/23 09:07:56;;;;;;;19.57;4.08;;;;;;;39.88;28.86;100708.06;1783545;80;21450;-69
2021/06/23 09:10:34;;;;;;;21.70;5.58;;;;;;;39.76;28.75;100701.53;1782803;80;21167;-70
2021/06/23 09:13:10;;;;;;;19.82;4.80;;;;;;;39.64;29.12;100699.68;1783405;80;20920;-71
2021/06/23 09:15:57;;;;;;;20.55;7.97;;;;;;;39.49;29.42;100699.22;1783420;80;20928;-70
2021/06/23 09:18:34;;;;;;;13.98;5.45;;;;;;;39.44;29.63;100699.26;1783509;80;21528;-71
2021/06/23 09:21:14;;;;;;;20.15;4.45;;;;;;;39.45;30.57;100707.22;1783528;80;21003;-70
2021/06/23 09:23:50;;;;;;;22.55;4.15;;;;;;;39.48;30.13;100705.83;1773062;80;21163;-71
2021/06/23 09:26:22;;;;;;;18.50;4.80;;;;;;;39.43;28.31;100698.45;1765336;81;21359;-71
2021/06/23 09:29:16;;;;;;;24.07;4.67;;;;;;;39.32;29.52;100695.47;1757537;81;20883;-71
2021/06/23 09:32:00;;;;;;;17.67;4.83;;;;;;;39.29;29.99;100705.09;1746986;82;20888;-71
2021/06/23 09:34:34;;;;;;;20.12;4.08;;;;;;;39.31;30.10;100704.78;1747060;82;20992;-71
2021/06/23 09:37:34;;;;;;;14.70;3.22;;;;;;;39.26;29.20;100704.26;1746838;82;20912;-70
2021/06/23 09:40:20;;;;;;;16.65;3.22;;;;;;;39.23;29.37;100707.58;1746945;82;21075;-70
2021/06/23 09:42:56;;;;;;;18.35;4.70;;;;;;;39.10;28.91;100699.41;1746930;80;20924;-71
2021/06/23 09:45:23;;;;;;;13.53;3.77;;;;;;;39.03;28.69;100693.97;1747100;80;20940;-70
2021/06/23 09:48:08;;;;;;;15.93;3.30;;;;;;;39.04;28.88;100701.08;1746902;80;20865;-70
2021/06/23 09:50:36;;;;;;;16.95;3.40;;;;;;;39.07;29.28;100690.94;1747217;82;21125;-72
2021/06/23 09:53:09;;;;;;;12.98;3.40;;;;;;;39.14;29.76;100693.63;1747124;82;20877;-71
2021/06/23 09:55:46;;;;;;;18.55;3.50;;;;;;;39.19;26.98;100694.15;1747090;82;20905;-73
2021/06/23 09:58:21;;;;;;;26.33;4.28;;;;;;;39.19;27.19;100705.13;1746795;82;20933;-70
2021/06/23 10:01:09;;;;;;;24.27;3.98;;;;;;;39.07;27.88;100695.05;1746903;82;20936;-71
2021/06/23 10:04:08;;;;;;;23.40;4.92;;;;;;;38.99;28.84;100696.44;1746856;82;21779;-71
2021/06/23 10:06:45;;;;;;;22.00;4.78;;;;;;;39.00;29.12;100699.47;1746879;82;21512;-71
2021/06/23 10:09:24;;;;;;;15.25;3.77;;;;;;;39.07;28.65;100695.05;1746965;82;20936;-72
2021/06/23 10:11:55;;;;;;;22.70;4.05;;;;;;;39.07;27.66;100697.79;1746781;82;21483;-72
2021/06/23 10:14:22;;;;;;;19.75;3.60;;;;;;;39.02;27.74;100695.89;1746925;80;21359;-72
2021/06/23 10:16:51;;;;;;;16.20;3.20;;;;;;;39.06;28.89;100695.58;1747198;80;21067;-71
2021/06/23 10:19:18;;;;;;;15.70;3.20;;;;;;;39.18;29.95;100702.13;1746804;82;20919;-72
2021/06/23 10:21:45;;;;;;;16.82;4.30;;;;;;;39.32;29.29;100700.95;1747200;82;21453;-72
2021/06/23 10:24:14;;;;;;;13.93;3.37;;;;;;;39.33;28.30;100692.97;1746849;80;20924;-71
2021/06/23 10:26:50;;;;;;;22.05;5.25;;;;;;;39.31;28.65;100693.28;1747140;80;20861;-72
2021/06/23 10:29:34;;;;;;;19.65;5.50;;;;;;;39.37;29.74;100680.33;1755840;81;21842;-72
2021/06/23 10:32:02;;;;;;;20.77;5.60;;;;;;;39.45;30.12;100688.01;1765543;81;20838;-71
2021/06/23 10:34:29;;;;;;;28.85;3.95;;;;;;;39.52;29.16;100693.18;1765326;81;20920;-71
2021/06/23 10:36:56;;;;;;;23.15;4.25;;;;;;;39.52;28.04;100693.18;1765581;79;20984;-73
2021/06/23 10:39:26;;;;;;;21.68;4.22;;;;;;;39.42;28.02;100704.20;1765428;80;21030;-72
2021/06/23 10:42:00;;;;;;;22.00;3.52;;;;;;;39.27;28.04;100703.73;1765671;80;21058;-73
2021/06/23 10:44:39;;;;;;;15.28;3.08;;;;;;;39.17;27.95;100706.77;1762702;80;20893;-76
2021/06/23 10:47:07;;;;;;;21.40;3.90;;;;;;;39.12;28.40;100696.39;1765579;81;21409;-72
2021/06/23 10:49:51;;;;;;;22.07;3.80;;;;;;;39.15;30.67;100701.30;1765743;81;20940;-71
2021/06/23 10:52:28;;;;;;;20.77;4.08;;;;;;;39.17;29.30;100701.28;1765495;81;20889;-72
2021/06/23 10:55:23;;;;;;;18.73;3.60;;;;;;;39.07;28.91;100698.61;1765806;81;21726;-73
2021/06/23 10:57:54;;;;;;;21.55;3.10;;;;;;;38.93;28.57;100707.12;1765918;81;20842;-71
2021/06/23 11:00:28;;;;;;;15.23;3.27;;;;;;;38.79;28.86;100701.41;1766067;81;20885;-71
2021/06/23 11:03:08;;;;;;;20.75;4.35;;;;;;;38.74;29.38;100704.17;1765564;80;21087;-71
2021/06/23 11:05:38;;;;;;;13.22;3.75;;;;;;;38.70;28.61;100702.53;1765790;80;21497;-73
2021/06/23 11:08:31;;;;;;;21.05;4.92;;;;;;;38.61;29.52;100698.72;1765274;80;21141;-73
2021/06/23 11:11:01;;;;;;;19.05;4.97;;;;;;;38.58;29.39;100711.63;1765797;80;20960;-73
2021/06/23 11:13:32;;;;;;;23.60;4.28;;;;;;;38.52;29.81;100699.84;1765599;81;21363;-73
2021/06/23 11:16:01;;;;;;;14.98;3.37;;;;;;;38.53;30.29;100703.39;1765739;81;20944;-73
2021/06/23 11:18:37;;;;;;;21.25;4.87;;;;;;;38.48;31.17;100702.03;1765452;81;20932;-72
2021/06/23 11:21:18;;;;;;;14.15;3.12;;;;;;;38.46;31.60;100708.31;1765621;80;21133;-73
2021/06/23 11:23:53;;;;;;;18.83;3.63;;;;;;;38.38;30.40;100704.75;1765672;80;21004;-73
2021/06/23 11:26:25;;;;;;;18.00;3.05;;;;;;;38.28;31.21;100704.23;1765902;81;20889;-72
2021/06/23 11:28:56;;;;;;;12.90;3.65;;;;;;;38.17;31.36;100697.92;1762123;81;21003;-71
2021/06/23 11:31:43;;;;;;;13.85;4.28;;;;;;;38.12;31.89;100693.83;1747093;80;20880;-71
2021/06/23 11:34:11;;;;;;;26.25;3.92;;;;;;;38.00;30.93;100692.72;1747054;80;21143;-72
2021/06/23 11:36:38;;;;;;;19.48;3.47;;;;;;;37.70;30.56;100699.79;1746892;80;21452;-71
2021/06/23 11:39:06;;;;;;;20.00;4.05;;;;;;;37.31;30.95;100701.60;1746932;80;21003;-71
2021/06/23 11:41:33;;;;;;;19.95;3.87;;;;;;;36.97;31.55;100695.67;1746989;80;20904;-72
2021/06/23 11:44:00;;;;;;;15.15;3.67;;;;;;;36.70;32.34;100692.53;1747065;82;20864;-72
2021/06/23 11:46:28;;;;;;;19.57;3.72;;;;;;;36.49;33.88;100693.48;1747024;82;22002;-71
2021/06/23 11:48:55;;;;;;;19.73;3.77;;;;;;;36.34;34.96;100692.83;1746994;82;20924;-74
2021/06/23 11:51:23;;;;;;;19.17;3.87;;;;;;;36.20;34.52;100698.47;1747028;80;21426;-72
2021/06/23 11:53:49;;;;;;;22.95;5.92;;;;;;;35.99;33.58;100693.33;1746962;82;20935;-71